Time;durP1;ratioP1;P1;durP2;ratioP2;P2;SDS_P1;SDS_P2;PMS_P1;PMS_P2;Temp;Humidity;BMP_temperature;BMP_pressure;BME280_temperature;BME280_humidity;BME280_pressure;Samples;Min_cycle;Max_cycle;Signal;HPM_P1;HPM_P2
2023/04/03 04:30:17;;;;;;;6.63;2.97;;;6.60;69.50;;;;;;6008080;23;20115;-78
2023/04/03 04:32:43;;;;;;;6.05;4.43;;;6.60;69.60;;;;;;4981442;28;20113;-80
2023/04/03 04:35:09;;;;;;;8.43;3.05;;;6.60;69.60;;;;;;5009854;28;20045;-80
2023/04/03 04:37:35;;;;;;;9.20;4.75;;;6.60;69.50;;;;;;4978027;28;20489;-81
2023/04/03 04:40:00;;;;;;;10.57;4.15;;;6.50;69.50;;;;;;4977748;28;20128;-81
2023/04/03 04:42:26;;;;;;;4.22;3.72;;;6.50;69.60;;;;;;4995639;28;20053;-82
2023/04/03 04:44:52;;;;;;;15.32;4.40;;;6.60;69.40;;;;;;4995576;28;20129;-81
2023/04/03 04:47:17;;;;;;;7.53;4.82;;;6.60;69.30;;;;;;5014402;28;20073;-80
2023/04/03 04:49:43;;;;;;;6.70;4.10;;;6.50;69.50;;;;;;5016413;28;20022;-79
2023/04/03 04:52:09;;;;;;;4.85;3.90;;;6.50;69.40;;;;;;4999408;28;20033;-82
2023/04/03 04:54:34;;;;;;;9.43;4.43;;;6.50;69.30;;;;;;5000698;28;20053;-83
2023/04/03 04:57:00;;;;;;;7.85;4.10;;;6.60;69.20;;;;;;4998146;28;20022;-79
2023/04/03 04:59:26;;;;;;;5.18;3.92;;;6.60;69.30;;;;;;4981519;28;20022;-79
2023/04/03 05:01:51;;;;;;;5.80;3.63;;;6.60;69.20;;;;;;5009357;28;20033;-79
2023/04/03 05:04:17;;;;;;;10.05;4.30;;;6.60;69.30;;;;;;4995004;28;20026;-80
2023/04/03 05:06:42;;;;;;;8.20;4.03;;;6.60;69.20;;;;;;5011410;28;20025;-80
2023/04/03 05:09:09;;;;;;;5.93;3.50;;;6.60;69.20;;;;;;5018243;28;20030;-81
2023/04/03 05:11:35;;;;;;;6.15;4.03;;;6.60;69.20;;;;;;5000670;28;20105;-80
2023/04/03 05:14:01;;;;;;;7.55;4.13;;;6.60;69.10;;;;;;5004115;28;20038;-79
2023/04/03 05:16:26;;;;;;;11.85;4.90;;;6.60;69.20;;;;;;4999780;28;20030;-79
2023/04/03 05:18:52;;;;;;;8.85;4.63;;;6.60;69.00;;;;;;5009720;28;20057;-80
2023/04/03 05:21:23;;;;;;;5.28;4.65;;;6.60;69.10;;;;;;5017485;28;20065;-79
2023/04/03 05:23:48;;;;;;;8.05;4.10;;;6.60;69.30;;;;;;4984225;28;20061;-79
2023/04/03 05:26:14;;;;;;;5.00;3.60;;;6.60;69.20;;;;;;4999816;28;20041;-79
2023/04/03 05:28:40;;;;;;;4.13;3.58;;;6.60;69.10;;;;;;4980965;28;20113;-79
2023/04/03 05:31:05;;;;;;;6.85;3.70;;;6.60;69.00;;;;;;4987408;28;20421;-80
2023/04/03 05:33:31;;;;;;;7.50;3.55;;;6.60;69.10;;;;;;4988164;28;20021;-79
2023/04/03 05:36:05;;;;;;;7.35;3.90;;;6.70;68.90;;;;;;5000120;28;20045;-80
2023/04/03 05:38:31;;;;;;;4.97;4.32;;;6.70;68.90;;;;;;5017141;28;20128;-81
2023/04/03 05:40:57;;;;;;;7.45;4.25;;;6.70;69.10;;;;;;5018111;28;20072;-77
2023/04/03 05:43:22;;;;;;;7.40;4.35;;;6.70;69.20;;;;;;5017731;28;20034;-77
2023/04/03 05:45:48;;;;;;;7.88;3.97;;;6.70;69.10;;;;;;5003532;28;20081;-78
2023/04/03 05:48:14;;;;;;;9.93;6.07;;;6.70;69.20;;;;;;5000447;28;20029;-73
2023/04/03 05:50:42;;;;;;;7.80;4.82;;;6.70;69.10;;;;;;4986820;28;20109;-73
2023/04/03 05:53:17;;;;;;;8.70;4.80;;;6.60;69.20;;;;;;4987944;28;20026;-73
2023/04/03 05:55:42;;;;;;;10.35;5.55;;;6.60;69.00;;;;;;5006420;28;20018;-73
2023/04/03 05:58:08;;;;;;;5.07;4.40;;;6.60;68.80;;;;;;5005573;28;20049;-73
2023/04/03 06:00:33;;;;;;;7.97;7.10;;;6.60;68.80;;;;;;5005939;28;20037;-73
2023/04/03 06:02:59;;;;;;;8.60;6.90;;;6.60;68.70;;;;;;5007008;28;20056;-73
2023/04/03 06:05:25;;;;;;;8.75;5.07;;;6.60;68.80;;;;;;5007451;28;20069;-73
2023/04/03 06:07:50;;;;;;;6.40;4.63;;;6.60;68.90;;;;;;5005810;28;20045;-73
2023/04/03 06:10:17;;;;;;;6.65;4.80;;;6.60;68.70;;;;;;5007728;28;20093;-73
2023/04/03 06:12:43;;;;;;;11.23;6.80;;;6.70;68.70;;;;;;5005665;28;20021;-73
2023/04/03 06:15:10;;;;;;;7.13;4.60;;;6.70;68.50;;;;;;4989611;28;20022;-73
2023/04/03 06:17:37;;;;;;;14.13;6.80;;;6.70;68.40;;;;;;5005193;28;20420;-73
2023/04/03 06:20:03;;;;;;;9.45;5.38;;;6.70;68.20;;;;;;5006485;28;20626;-73
2023/04/03 06:22:29;;;;;;;7.78;4.85;;;6.70;68.40;;;;;;5005240;28;20440;-73
2023/04/03 06:24:56;;;;;;;6.38;4.97;;;6.70;68.10;;;;;;5006075;28;20087;-73
2023/04/03 06:27:21;;;;;;;8.13;6.07;;;6.70;67.90;;;;;;5004030;28;20032;-73
2023/04/03 06:29:48;;;;;;;7.97;4.80;;;6.70;67.90;;;;;;5007007;28;20014;-74
2023/04/03 06:32:14;;;;;;;10.27;5.30;;;6.80;68.10;;;;;;5004430;28;20077;-75
2023/04/03 06:34:41;;;;;;;13.88;5.70;;;6.80;68.10;;;;;;5006060;28;20036;-74
2023/04/03 06:37:10;;;;;;;7.70;4.80;;;6.90;67.80;;;;;;4987457;28;20061;-74
2023/04/03 06:39:36;;;;;;;5.97;4.75;;;6.90;67.90;;;;;;5006222;28;20611;-74
2023/04/03 06:42:02;;;;;;;7.40;5.43;;;7.00;67.80;;;;;;4988483;28;20077;-74
2023/04/03 06:44:27;;;;;;;6.70;5.05;;;7.00;67.90;;;;;;5004608;28;20019;-74
2023/04/03 06:46:54;;;;;;;4.68;4.25;;;7.10;67.70;;;;;;5006686;28;20072;-74
2023/04/03 06:49:19;;;;;;;9.90;5.53;;;7.10;67.80;;;;;;5004750;28;20401;-74
2023/04/03 06:51:45;;;;;;;7.93;5.85;;;7.00;67.50;;;;;;4989573;28;20027;-74
2023/04/03 06:54:11;;;;;;;9.45;5.80;;;7.00;67.30;;;;;;5005622;28;20022;-74
2023/04/03 06:56:37;;;;;;;9.15;5.22;;;7.00;67.00;;;;;;5005216;28;20014;-74
2023/04/03 06:59:03;;;;;;;11.45;6.07;;;7.00;67.00;;;;;;5004205;28;20084;-74
2023/04/03 07:01:29;;;;;;;10.27;5.88;;;7.00;67.00;;;;;;5004265;28;20474;-74
2023/04/03 07:03:55;;;;;;;6.82;5.07;;;7.10;67.00;;;;;;5006891;28;20029;-74
2023/04/03 07:06:21;;;;;;;10.02;6.05;;;7.20;67.00;;;;;;5005707;28;20864;-74
2023/04/03 07:08:48;;;;;;;7.55;5.68;;;7.20;66.90;;;;;;4986186;28;20048;-74
2023/04/03 07:11:15;;;;;;;7.63;5.40;;;7.20;66.90;;;;;;5001364;28;20132;-74
2023/04/03 07:13:40;;;;;;;7.53;5.97;;;7.10;66.70;;;;;;4978907;28;20027;-74
2023/04/03 07:16:08;;;;;;;7.18;5.35;;;7.10;66.50;;;;;;4996485;28;20114;-74
2023/04/03 07:18:34;;;;;;;7.32;5.90;;;7.10;66.90;;;;;;4994098;28;20045;-74
2023/04/03 07:21:00;;;;;;;9.02;6.70;;;7.10;66.50;;;;;;5016181;28;20029;-75
2023/04/03 07:23:25;;;;;;;10.35;6.55;;;7.00;66.60;;;;;;5006174;28;20034;-73
2023/04/03 07:25:52;;;;;;;11.60;5.78;;;7.10;66.60;;;;;;4998715;28;20034;-74
2023/04/03 07:28:19;;;;;;;9.02;5.43;;;7.20;66.30;;;;;;5006599;28;20034;-74
2023/04/03 07:30:47;;;;;;;10.75;6.35;;;7.20;65.80;;;;;;4992505;28;20034;-74
2023/04/03 07:33:14;;;;;;;8.88;6.07;;;7.20;66.40;;;;;;5000250;28;20711;-74
2023/04/03 07:35:41;;;;;;;7.53;5.20;;;7.30;66.00;;;;;;4998140;28;20094;-74
2023/04/03 07:38:06;;;;;;;8.88;6.68;;;7.30;66.00;;;;;;4997713;28;20433;-74
2023/04/03 07:40:32;;;;;;;8.55;5.78;;;7.40;65.90;;;;;;4996067;28;20121;-74
2023/04/03 07:42:59;;;;;;;17.05;8.45;;;7.50;65.70;;;;;;4996227;28;20116;-74
2023/04/03 07:45:25;;;;;;;6.13;5.53;;;7.20;64.80;;;;;;4978284;28;20022;-74
2023/04/03 07:47:51;;;;;;;8.68;6.30;;;7.20;66.20;;;;;;5000241;28;20104;-74
2023/04/03 07:50:17;;;;;;;6.78;5.90;;;7.30;66.30;;;;;;4998099;28;20093;-74
2023/04/03 07:52:43;;;;;;;9.18;7.03;;;7.50;65.90;;;;;;4998218;28;20022;-74
2023/04/03 07:55:09;;;;;;;8.52;6.70;;;7.50;65.20;;;;;;5006173;28;20030;-74
2023/04/03 07:57:35;;;;;;;18.00;5.97;;;7.50;65.30;;;;;;4995960;28;20210;-74
2023/04/03 08:00:01;;;;;;;6.93;5.75;;;7.60;65.50;;;;;;4994599;28;20033;-74
2023/04/03 08:02:26;;;;;;;8.93;5.72;;;7.60;65.30;;;;;;5015672;28;20169;-74
2023/04/03 08:04:52;;;;;;;8.50;6.18;;;7.70;65.70;;;;;;4996720;28;20054;-74
2023/04/03 08:07:18;;;;;;;10.00;6.15;;;7.70;65.80;;;;;;4996090;28;20117;-74
2023/04/03 08:09:44;;;;;;;9.57;5.22;;;7.70;65.80;;;;;;4996056;28;20062;-74
2023/04/03 08:12:11;;;;;;;9.27;6.03;;;7.60;66.30;;;;;;5012969;28;20022;-74
2023/04/03 08:14:37;;;;;;;8.80;6.18;;;7.40;66.10;;;;;;5005633;28;20425;-74
2023/04/03 08:17:04;;;;;;;9.27;6.80;;;7.50;66.40;;;;;;4995968;28;20042;-74
2023/04/03 08:19:30;;;;;;;9.30;6.40;;;7.30;66.80;;;;;;4978345;28;20049;-74
2023/04/03 08:21:58;;;;;;;9.15;6.32;;;7.50;67.50;;;;;;4995828;28;20094;-74
2023/04/03 08:24:24;;;;;;;15.27;7.30;;;7.60;66.70;;;;;;4998596;28;20022;-74
2023/04/03 08:26:50;;;;;;;8.20;5.45;;;7.70;66.60;;;;;;5014870;28;20026;-73
2023/04/03 08:29:15;;;;;;;11.68;7.72;;;7.60;66.50;;;;;;4999809;28;20481;-74
2023/04/03 08:31:41;;;;;;;10.95;6.88;;;7.70;66.90;;;;;;4999325;28;20122;-74
2023/04/03 08:34:06;;;;;;;11.57;7.45;;;7.70;66.70;;;;;;5012317;28;20110;-74
2023/04/03 08:36:32;;;;;;;13.38;7.00;;;7.80;66.50;;;;;;4987546;28;20034;-74
2023/04/03 08:38:57;;;;;;;11.15;7.00;;;7.80;66.70;;;;;;4981939;28;20409;-74
2023/04/03 08:41:32;;;;;;;11.05;8.75;;;7.90;66.60;;;;;;4999347;28;20042;-74
2023/04/03 08:44:29;;;;;;;11.38;7.63;;;7.80;66.50;;;;;;4981686;28;20034;-74
2023/04/03 08:47:19;;;;;;;9.93;6.55;;;7.90;66.10;;;;;;4999181;28;20030;-73
2023/04/03 08:49:51;;;;;;;10.10;5.60;;;7.90;66.50;;;;;;4981608;28;20461;-74
2023/04/03 08:52:31;;;;;;;11.98;6.70;;;7.80;67.10;;;;;;4999384;28;20031;-74
2023/04/03 08:55:03;;;;;;;13.10;7.25;;;7.70;67.70;;;;;;4981532;28;20048;-74
2023/04/03 08:57:45;;;;;;;11.70;7.05;;;7.40;67.30;;;;;;4999153;28;20058;-74
2023/04/03 09:00:13;;;;;;;15.38;9.07;;;7.30;68.70;;;;;;5015569;28;20073;-74
2023/04/03 09:03:11;;;;;;;9.88;6.25;;;7.20;68.90;;;;;;5018649;28;20448;-74
2023/04/03 09:05:58;;;;;;;12.70;6.32;;;7.40;68.90;;;;;;4991387;28;20042;-74
2023/04/03 09:08:38;;;;;;;10.32;6.05;;;7.60;69.00;;;;;;4981318;28;20038;-74
2023/04/03 09:11:14;;;;;;;13.40;8.05;;;7.70;68.00;;;;;;5006727;28;20030;-74
2023/04/03 09:13:54;;;;;;;10.77;6.35;;;7.60;67.90;;;;;;5016867;28;20044;-74
2023/04/03 09:16:36;;;;;;;9.07;6.28;;;7.80;68.20;;;;;;4981339;28;20027;-74
2023/04/03 09:19:28;;;;;;;13.75;6.93;;;8.00;67.60;;;;;;4985072;28;20037;-74
2023/04/03 09:22:09;;;;;;;14.68;7.78;;;8.20;66.80;;;;;;4998536;28;20058;-74
2023/04/03 09:24:36;;;;;;;12.00;6.50;;;8.10;66.90;;;;;;5004106;28;20104;-74
2023/04/03 09:27:07;;;;;;;12.50;7.22;;;8.20;67.20;;;;;;5018098;28;20014;-74
2023/04/03 09:29:39;;;;;;;11.10;6.97;;;8.30;66.80;;;;;;5000498;28;20112;-74
2023/04/03 09:32:28;;;;;;;14.18;7.50;;;8.40;66.70;;;;;;5005118;28;20042;-74
2023/04/03 09:34:57;;;;;;;15.07;8.50;;;8.50;66.50;;;;;;4999698;28;20041;-74
2023/04/03 09:37:59;;;;;;;12.25;6.97;;;8.60;66.20;;;;;;5017105;28;20105;-74
2023/04/03 09:40:25;;;;;;;10.90;5.43;;;8.60;65.80;;;;;;4995419;28;20043;-74
2023/04/03 09:42:58;;;;;;;13.80;6.25;;;8.30;65.30;;;;;;4998350;28;20030;-74
2023/04/03 09:45:30;;;;;;;11.93;7.32;;;8.50;66.30;;;;;;4997902;28;20413;-74
2023/04/03 09:48:17;;;;;;;12.32;6.15;;;8.60;65.60;;;;;;4998153;28;20093;-74
2023/04/03 09:51:00;;;;;;;13.35;5.95;;;8.70;64.90;;;;;;4980630;28;20026;-74
2023/04/03 09:53:42;;;;;;;13.23;7.00;;;8.30;64.70;;;;;;4998379;28;20027;-74
2023/04/03 09:56:16;;;;;;;11.40;7.05;;;8.30;65.00;;;;;;4997998;28;20022;-74
2023/04/03 09:58:48;;;;;;;12.80;7.05;;;8.60;65.30;;;;;;4997977;28;20062;-74
2023/04/03 10:01:41;;;;;;;10.75;6.20;;;8.60;64.70;;;;;;4997984;28;20081;-74
2023/04/03 10:04:07;;;;;;;12.40;6.05;;;8.60;65.10;;;;;;5003621;28;20045;-74
2023/04/03 10:06:40;;;;;;;11.68;6.35;;;8.60;64.30;;;;;;5015257;28;20496;-74
2023/04/03 10:09:20;;;;;;;12.88;7.07;;;8.70;65.00;;;;;;4980272;28;20073;-74
2023/04/03 10:12:08;;;;;;;14.32;8.25;;;8.80;64.90;;;;;;5007246;28;20384;-74
2023/04/03 10:14:36;;;;;;;11.30;7.03;;;8.60;64.60;;;;;;4997714;28;20058;-74
2023/04/03 10:17:23;;;;;;;11.25;6.60;;;8.80;65.30;;;;;;5001778;28;20498;-74
2023/04/03 10:19:58;;;;;;;12.30;6.53;;;8.80;64.80;;;;;;4994474;28;20032;-73
2023/04/03 10:22:51;;;;;;;12.30;6.50;;;9.00;64.10;;;;;;5017393;28;20021;-74
2023/04/03 10:25:32;;;;;;;10.70;5.68;;;9.00;64.00;;;;;;5016271;28;20053;-74
2023/04/03 10:28:03;;;;;;;13.07;7.10;;;9.20;64.30;;;;;;4997302;28;20057;-74
2023/04/03 10:30:51;;;;;;;10.88;6.10;;;9.20;62.40;;;;;;4997163;28;20054;-74
2023/04/03 10:33:41;;;;;;;9.95;6.35;;;9.60;63.10;;;;;;5009781;28;20084;-74
2023/04/03 10:36:25;;;;;;;12.10;6.68;;;9.70;60.40;;;;;;5010035;28;20037;-74
2023/04/03 10:39:13;;;;;;;9.68;6.45;;;10.00;61.00;;;;;;4997336;28;20034;-74
2023/04/03 10:41:58;;;;;;;10.98;7.40;;;10.10;59.20;;;;;;4999080;28;20041;-74
2023/04/03 10:44:42;;;;;;;10.75;6.90;;;10.70;58.70;;;;;;5016941;28;20040;-74
2023/04/03 10:47:34;;;;;;;9.30;6.20;;;10.70;56.30;;;;;;5016041;28;20029;-74
2023/04/03 10:50:25;;;;;;;11.13;6.57;;;10.90;58.20;;;;;;5007748;28;20101;-74
2023/04/03 10:53:00;;;;;;;9.38;5.80;;;11.30;57.00;;;;;;5006076;28;20022;-74
2023/04/03 10:55:39;;;;;;;12.05;7.72;;;11.50;56.50;;;;;;4998959;28;20029;-74
2023/04/03 10:58:06;;;;;;;13.63;7.57;;;11.00;55.00;;;;;;5015226;28;20022;-74
2023/04/03 11:00:48;;;;;;;11.77;7.10;;;11.20;56.60;;;;;;5016444;28;20603;-74
2023/04/03 11:03:28;;;;;;;11.05;7.40;;;11.00;54.50;;;;;;5010924;28;20026;-73
2023/04/03 11:05:55;;;;;;;13.25;7.20;;;11.00;55.70;;;;;;4996892;28;20484;-74
2023/04/03 11:08:34;;;;;;;12.52;7.55;;;11.10;56.20;;;;;;4996501;28;20489;-74
2023/04/03 11:11:22;;;;;;;11.93;6.57;;;11.00;55.80;;;;;;5003975;28;20141;-74
2023/04/03 11:14:09;;;;;;;12.45;7.85;;;11.10;55.20;;;;;;4982442;28;20041;-75
2023/04/03 11:16:45;;;;;;;10.50;6.32;;;11.20;54.70;;;;;;5014768;28;20034;-74
2023/04/03 11:19:21;;;;;;;10.52;6.57;;;11.30;54.30;;;;;;4998555;28;20033;-75
2023/04/03 11:22:26;;;;;;;9.88;6.60;;;11.40;55.10;;;;;;5004284;28;20030;-74
2023/04/03 11:25:15;;;;;;;10.50;7.15;;;11.60;55.50;;;;;;4997541;28;20519;-74
2023/04/03 11:27:43;;;;;;;9.13;6.18;;;11.60;55.50;;;;;;5014797;28;20558;-74
2023/04/03 11:30:34;;;;;;;8.73;6.60;;;11.40;54.90;;;;;;5015950;28;20030;-75
2023/04/03 11:33:13;;;;;;;10.15;7.30;;;11.10;56.00;;;;;;4975638;28;20046;-74
2023/04/03 11:35:48;;;;;;;11.45;7.45;;;11.10;56.50;;;;;;5016084;28;20449;-73
2023/04/03 11:38:29;;;;;;;8.10;5.63;;;11.00;55.20;;;;;;4996571;28;20034;-74
2023/04/03 11:40:56;;;;;;;10.07;6.82;;;10.90;56.10;;;;;;4996336;28;20157;-74
2023/04/03 11:43:25;;;;;;;11.48;6.50;;;10.80;55.10;;;;;;4996236;28;20027;-74
2023/04/03 11:46:06;;;;;;;9.15;5.55;;;11.00;57.00;;;;;;4996124;28;20062;-74
2023/04/03 11:48:35;;;;;;;11.07;6.40;;;11.10;54.70;;;;;;4996101;28;20033;-74
2023/04/03 11:51:12;;;;;;;11.60;5.78;;;11.00;57.20;;;;;;4996348;28;20018;-74
2023/04/03 11:53:40;;;;;;;8.80;6.03;;;11.00;56.00;;;;;;4995996;28;20715;-74
2023/04/03 11:56:32;;;;;;;7.53;5.43;;;11.10;57.20;;;;;;4998012;28;20038;-74
2023/04/03 11:59:13;;;;;;;10.93;6.40;;;11.30;56.60;;;;;;5006699;28;20030;-74
2023/04/03 12:01:58;;;;;;;11.57;6.07;;;11.30;56.20;;;;;;5019983;28;20029;-75
2023/04/03 12:04:28;;;;;;;10.50;5.32;;;11.20;56.00;;;;;;5001315;28;20049;-74
2023/04/03 12:07:18;;;;;;;11.23;5.88;;;11.20;56.30;;;;;;5019691;28;20068;-74
2023/04/03 12:09:43;;;;;;;9.15;4.97;;;10.90;55.10;;;;;;5019962;28;20030;-74
2023/04/03 12:12:32;;;;;;;10.27;5.97;;;10.70;56.20;;;;;;5019717;28;20026;-74
2023/04/03 12:15:21;;;;;;;8.73;5.25;;;10.90;57.90;;;;;;5000095;28;20028;-74
2023/04/03 12:17:47;;;;;;;11.67;7.73;;;11.10;57.20;;;;;;4999786;28;20140;-74
2023/04/03 12:20:50;;;;;;;7.97;5.95;;;11.40;56.00;;;;;;4999685;28;20277;-74
2023/04/03 12:23:27;;;;;;;11.65;6.22;;;11.60;55.80;;;;;;4982153;28;20092;-74
2023/04/03 12:26:02;;;;;;;9.02;6.25;;;11.70;56.30;;;;;;4999782;28;20084;-74
2023/04/03 12:28:28;;;;;;;8.93;5.35;;;11.60;54.40;;;;;;4981996;28;20045;-74
2023/04/03 12:30:54;;;;;;;13.20;6.80;;;11.50;54.40;;;;;;4981832;28;20047;-74
2023/04/03 12:33:40;;;;;;;8.70;5.03;;;11.70;56.50;;;;;;5005874;28;20032;-74
2023/04/03 12:36:22;;;;;;;8.43;5.20;;;11.80;55.50;;;;;;4997214;28;20030;-74
2023/04/03 12:38:57;;;;;;;11.23;6.45;;;11.70;53.60;;;;;;4991583;28;20083;-74
2023/04/03 12:41:45;;;;;;;10.63;5.18;;;11.50;53.50;;;;;;4999574;28;20019;-74
2023/04/03 12:44:26;;;;;;;8.50;5.60;;;11.80;55.60;;;;;;4999403;28;20034;-74
2023/04/03 12:46:53;;;;;;;7.75;5.43;;;11.80;54.60;;;;;;5011629;28;20037;-74
2023/04/03 12:49:31;;;;;;;9.63;5.57;;;11.80;56.10;;;;;;5013063;28;20045;-74
2023/04/03 12:51:56;;;;;;;8.52;5.22;;;11.80;54.90;;;;;;4999350;28;20023;-74
2023/04/03 12:54:40;;;;;;;8.73;5.50;;;11.60;55.20;;;;;;4999108;28;20026;-74
2023/04/03 12:57:17;;;;;;;8.40;5.25;;;11.70;55.70;;;;;;4981567;28;20095;-74
2023/04/03 12:59:45;;;;;;;6.63;4.60;;;11.90;56.30;;;;;;5000111;28;20053;-74
2023/04/03 13:02:31;;;;;;;8.13;5.45;;;12.10;57.00;;;;;;5018876;28;20081;-74
2023/04/03 13:04:59;;;;;;;9.20;6.22;;;12.20;56.30;;;;;;4999080;28;20038;-74
2023/04/03 13:07:28;;;;;;;9.85;6.07;;;12.20;55.20;;;;;;4999066;28;20030;-74
2023/04/03 13:10:10;;;;;;;11.00;6.95;;;12.20;55.50;;;;;;4998524;28;20073;-74
2023/04/03 13:12:53;;;;;;;11.32;6.55;;;12.00;54.60;;;;;;4992458;28;20034;-74
2023/04/03 13:15:27;;;;;;;8.45;5.13;;;12.10;57.10;;;;;;4998891;28;20030;-74
2023/04/03 13:17:54;;;;;;;8.82;5.95;;;12.20;55.40;;;;;;4998785;28;20030;-74
2023/04/03 13:20:34;;;;;;;10.38;6.40;;;12.30;55.70;;;;;;4998763;28;20109;-74
2023/04/03 13:23:08;;;;;;;8.27;5.97;;;12.30;56.30;;;;;;5015633;28;20037;-74
2023/04/03 13:25:37;;;;;;;9.68;7.07;;;12.20;54.80;;;;;;5000360;28;20033;-74
2023/04/03 13:28:06;;;;;;;9.55;6.13;;;12.20;54.40;;;;;;5018091;28;20113;-74
2023/04/03 13:30:36;;;;;;;9.52;6.03;;;12.20;55.20;;;;;;5017492;28;20045;-74
2023/04/03 13:33:05;;;;;;;10.95;6.18;;;12.40;55.40;;;;;;4996006;28;20114;-74
2023/04/03 13:35:37;;;;;;;10.00;6.55;;;12.50;55.20;;;;;;4978777;28;20114;-74
2023/04/03 13:38:24;;;;;;;8.95;6.35;;;12.70;55.50;;;;;;4978875;28;20039;-74
2023/04/03 13:40:53;;;;;;;8.52;5.38;;;12.80;55.00;;;;;;4978918;28;20037;-74
2023/04/03 13:43:22;;;;;;;7.88;5.38;;;12.80;54.90;;;;;;4961259;28;20034;-74
2023/04/03 13:46:06;;;;;;;8.55;5.75;;;12.70;53.70;;;;;;4961397;28;20038;-74
2023/04/03 13:48:38;;;;;;;13.95;6.90;;;12.90;54.80;;;;;;4960873;28;20038;-74
2023/04/03 13:51:13;;;;;;;9.48;6.28;;;12.50;52.70;;;;;;4978844;28;20047;-74
2023/04/03 13:53:49;;;;;;;12.68;6.53;;;12.50;53.70;;;;;;4978664;28;20023;-74
2023/04/03 13:56:26;;;;;;;8.93;6.05;;;12.40;52.80;;;;;;4961093;28;20034;-74
2023/04/03 13:58:59;;;;;;;11.73;7.75;;;12.40;54.30;;;;;;4978520;28;20025;-74
2023/04/03 14:01:32;;;;;;;8.25;5.97;;;12.60;54.00;;;;;;4978574;28;20439;-74
2023/04/03 14:04:10;;;;;;;9.35;5.95;;;12.80;54.40;;;;;;4961207;28;20031;-74
2023/04/03 14:06:35;;;;;;;10.13;6.28;;;13.00;55.00;;;;;;4978440;28;20466;-74
2023/04/03 14:09:02;;;;;;;8.70;6.05;;;13.20;53.70;;;;;;4992678;28;20113;-74
2023/04/03 14:11:30;;;;;;;6.47;5.85;;;13.30;53.20;;;;;;4986678;28;20030;-74
2023/04/03 14:14:00;;;;;;;7.78;5.55;;;13.30;52.90;;;;;;4978012;28;20026;-74
2023/04/03 14:16:30;;;;;;;8.63;5.38;;;13.20;53.60;;;;;;4960745;28;20390;-74
2023/04/03 14:18:56;;;;;;;8.20;5.15;;;13.20;52.60;;;;;;4993116;28;20073;-74
2023/04/03 14:21:22;;;;;;;8.63;5.32;;;13.00;52.30;;;;;;4997215;28;20027;-74
2023/04/03 14:23:48;;;;;;;9.95;6.35;;;13.10;52.60;;;;;;4990212;28;20057;-74
2023/04/03 14:26:18;;;;;;;7.80;5.30;;;13.20;52.50;;;;;;4978123;28;20093;-74
2023/04/03 14:28:46;;;;;;;7.50;4.80;;;13.30;52.40;;;;;;4977892;28;20050;-74
2023/04/03 14:31:13;;;;;;;9.13;5.65;;;13.40;52.20;;;;;;4966692;28;20054;-74
2023/04/03 14:33:39;;;;;;;9.55;5.97;;;13.40;52.10;;;;;;4986876;28;20022;-74
2023/04/03 14:36:17;;;;;;;5.82;4.70;;;13.40;52.80;;;;;;4997471;28;20030;-74
2023/04/03 14:38:44;;;;;;;11.10;6.63;;;13.40;53.50;;;;;;4978955;28;20521;-74
2023/04/03 14:41:15;;;;;;;9.45;5.40;;;13.20;51.60;;;;;;4960573;28;20030;-74
2023/04/03 14:43:41;;;;;;;8.30;5.85;;;13.20;53.90;;;;;;4977741;28;20493;-74
2023/04/03 14:46:16;;;;;;;9.35;5.50;;;13.20;51.50;;;;;;4977408;28;20027;-74
2023/04/03 14:48:42;;;;;;;9.55;6.35;;;13.20;52.60;;;;;;4977486;28;20488;-74
2023/04/03 14:51:11;;;;;;;7.13;4.90;;;13.20;51.70;;;;;;4977695;28;20065;-74
2023/04/03 14:53:37;;;;;;;7.80;5.70;;;12.90;52.00;;;;;;4985131;28;20029;-74
2023/04/03 14:56:15;;;;;;;8.25;5.65;;;12.90;51.90;;;;;;4980708;28;20034;-74
2023/04/03 14:58:41;;;;;;;7.60;5.47;;;13.10;52.80;;;;;;4977600;28;20081;-74
2023/04/03 15:01:08;;;;;;;8.10;5.57;;;13.20;52.60;;;;;;4977350;28;20050;-74
2023/04/03 15:03:34;;;;;;;8.95;5.28;;;13.40;52.80;;;;;;4973792;28;20026;-74
2023/04/03 15:06:00;;;;;;;8.00;5.43;;;13.40;51.70;;;;;;4993606;28;20027;-74
2023/04/03 15:08:29;;;;;;;6.22;4.65;;;13.30;50.50;;;;;;4996719;28;20026;-74
2023/04/03 15:10:56;;;;;;;6.78;5.25;;;13.30;52.30;;;;;;4995449;28;20019;-74
2023/04/03 15:13:23;;;;;;;8.45;4.82;;;13.30;51.10;;;;;;4996994;28;20042;-74
2023/04/03 15:15:50;;;;;;;5.95;4.85;;;13.30;51.50;;;;;;4996514;28;20019;-74
2023/04/03 15:18:21;;;;;;;8.98;5.50;;;13.30;50.40;;;;;;4964288;28;20089;-74
2023/04/03 15:20:47;;;;;;;9.10;5.18;;;13.50;50.10;;;;;;4977228;28;20034;-74
2023/04/03 15:23:15;;;;;;;8.13;5.50;;;13.50;50.60;;;;;;4977448;28;20062;-74
2023/04/03 15:25:42;;;;;;;7.53;4.57;;;13.30;49.80;;;;;;4991071;28;20026;-74
2023/04/03 15:28:21;;;;;;;8.32;5.95;;;13.30;50.80;;;;;;4996408;28;20039;-74
2023/04/03 15:30:47;;;;;;;7.95;4.70;;;13.20;50.10;;;;;;4974202;28;20561;-74
2023/04/03 15:33:13;;;;;;;6.40;4.50;;;13.00;50.90;;;;;;4982043;28;20026;-74
2023/04/03 15:35:38;;;;;;;7.93;4.93;;;13.30;52.70;;;;;;4972661;28;20033;-74
2023/04/03 15:38:04;;;;;;;7.10;4.93;;;13.40;51.60;;;;;;4976960;28;20062;-74
2023/04/03 15:40:30;;;;;;;5.82;4.60;;;13.50;51.50;;;;;;4977182;28;20027;-74
2023/04/03 15:42:55;;;;;;;8.70;4.80;;;13.60;51.60;;;;;;4989582;28;20034;-74
2023/04/03 15:45:21;;;;;;;8.43;4.85;;;13.70;51.90;;;;;;4996278;28;20038;-74
2023/04/03 15:47:47;;;;;;;7.55;4.78;;;13.70;51.10;;;;;;4964627;28;20031;-74
2023/04/03 15:50:13;;;;;;;7.90;5.15;;;13.70;51.70;;;;;;4976722;28;20102;-74
2023/04/03 15:52:39;;;;;;;9.05;4.90;;;13.70;51.70;;;;;;4976658;28;20039;-74
2023/04/03 15:55:05;;;;;;;8.38;5.63;;;13.70;51.80;;;;;;4976748;28;20381;-74
2023/04/03 15:57:31;;;;;;;8.18;5.65;;;13.70;50.50;;;;;;4976663;28;20062;-74
2023/04/03 15:59:57;;;;;;;7.10;4.80;;;13.70;51.20;;;;;;4976759;28;20027;-74
2023/04/03 16:02:23;;;;;;;9.05;5.18;;;13.60;50.70;;;;;;4981213;28;20046;-74
2023/04/03 16:04:49;;;;;;;6.57;4.90;;;13.60;51.30;;;;;;4971132;28;20026;-74
2023/04/03 16:07:15;;;;;;;7.07;4.93;;;13.70;51.70;;;;;;4992985;28;20038;-74
2023/04/03 16:09:40;;;;;;;9.10;6.38;;;13.70;52.00;;;;;;4996092;28;20022;-74
2023/04/03 16:12:06;;;;;;;7.00;5.53;;;13.60;51.30;;;;;;4984174;28;20066;-74
2023/04/03 16:14:31;;;;;;;7.07;5.25;;;13.60;52.10;;;;;;4995985;28;20030;-74
2023/04/03 16:16:58;;;;;;;7.65;5.65;;;13.60;52.40;;;;;;4978534;28;20089;-74
2023/04/03 16:19:24;;;;;;;8.55;5.60;;;13.70;52.30;;;;;;4996028;28;20019;-74
2023/04/03 16:21:50;;;;;;;7.13;5.07;;;13.70;51.60;;;;;;4977284;28;20058;-74
2023/04/03 16:24:15;;;;;;;9.15;4.93;;;13.60;51.70;;;;;;4995676;28;20185;-74
2023/04/03 16:26:41;;;;;;;6.57;4.47;;;13.50;52.20;;;;;;4995864;28;20030;-74
2023/04/03 16:29:07;;;;;;;8.40;4.13;;;13.60;52.10;;;;;;4982195;28;20058;-75
2023/04/03 16:31:33;;;;;;;7.60;4.93;;;13.60;51.90;;;;;;4987731;28;20051;-74
2023/04/03 16:34:00;;;;;;;8.32;4.93;;;13.50;52.60;;;;;;4983060;28;20037;-74
2023/04/03 16:36:26;;;;;;;5.68;4.82;;;13.50;52.30;;;;;;4978291;28;20040;-74
2023/04/03 16:38:52;;;;;;;8.25;5.20;;;13.50;52.80;;;;;;4996194;28;20115;-74
2023/04/03 16:41:17;;;;;;;8.32;5.50;;;13.50;52.70;;;;;;5005103;28;20039;-74
2023/04/03 16:43:43;;;;;;;7.13;4.25;;;13.50;52.80;;;;;;5003723;28;20022;-74
2023/04/03 16:46:09;;;;;;;6.28;4.28;;;13.50;52.20;;;;;;4994713;28;20042;-76
2023/04/03 16:48:35;;;;;;;6.70;4.65;;;13.50;52.10;;;;;;5014785;28;20432;-74
2023/04/03 16:51:00;;;;;;;7.75;4.38;;;13.50;52.30;;;;;;5017718;28;20018;-74
2023/04/03 16:53:27;;;;;;;5.35;4.38;;;13.50;52.20;;;;;;5016375;28;20143;-74
2023/04/03 16:55:53;;;;;;;9.38;5.00;;;13.50;52.30;;;;;;5017659;28;20050;-74
2023/04/03 16:58:19;;;;;;;7.78;4.65;;;13.50;52.20;;;;;;5017464;28;20626;-74
2023/04/03 17:00:46;;;;;;;6.65;4.35;;;13.40;52.40;;;;;;5016838;28;20030;-74
2023/04/03 17:03:12;;;;;;;6.95;4.15;;;13.40;52.40;;;;;;5015076;28;20029;-74
2023/04/03 17:05:38;;;;;;;6.25;4.35;;;13.30;52.50;;;;;;5014813;28;20036;-74
2023/04/03 17:08:04;;;;;;;5.70;3.75;;;13.30;52.50;;;;;;4998270;28;20451;-77
2023/04/03 17:10:30;;;;;;;5.72;4.45;;;13.30;52.40;;;;;;4993024;28;20030;-76
2023/04/03 17:12:55;;;;;;;8.73;4.28;;;13.30;52.10;;;;;;5007164;28;20029;-76
2023/04/03 17:15:22;;;;;;;6.38;4.88;;;13.30;52.20;;;;;;5007063;28;20036;-75
2023/04/03 17:17:50;;;;;;;7.20;5.03;;;13.30;52.40;;;;;;5017198;28;20093;-79
2023/04/03 17:20:16;;;;;;;8.00;5.03;;;13.20;52.30;;;;;;4991290;28;20053;-77
2023/04/03 17:22:42;;;;;;;7.93;4.70;;;13.20;52.50;;;;;;5005864;28;20030;-77
2023/04/03 17:25:08;;;;;;;10.35;5.15;;;13.20;53.20;;;;;;4999824;28;20057;-80
2023/04/03 17:27:38;;;;;;;5.60;4.25;;;13.10;53.30;;;;;;4989047;28;20026;-79
2023/04/03 17:30:04;;;;;;;6.40;4.53;;;13.10;53.20;;;;;;5021322;28;20106;-80
2023/04/03 17:32:30;;;;;;;7.40;4.75;;;13.00;53.20;;;;;;5000532;28;20554;-81
2023/04/03 17:34:56;;;;;;;8.18;5.05;;;13.00;53.80;;;;;;5000983;28;20417;-79
2023/04/03 17:37:22;;;;;;;9.02;4.65;;;13.00;53.90;;;;;;4982625;28;20034;-79